Time;durP1;ratioP1;P1;durP2;ratioP2;P2;SDS_P1;SDS_P2;PMS_P1;PMS_P2;Temp;Humidity;BMP_temperature;BMP_pressure;BME280_temperature;BME280_humidity;BME280_pressure;Samples;Min_cycle;Max_cycle;Signal;HPM_P1;HPM_P2
2024/04/18 00:00:43;;;;;;;2.03;1.58;;;10.90;73.10;;;;;;5470068;26;20002;-39
2024/04/18 00:03:08;;;;;;;1.73;1.60;;;10.90;73.10;;;;;;5446559;26;20033;-39
2024/04/18 00:05:34;;;;;;;1.70;1.60;;;10.90;73.10;;;;;;5455577;26;20014;-39
2024/04/18 00:08:00;;;;;;;2.50;1.70;;;10.90;73.20;;;;;;5459716;26;20008;-39
2024/04/18 00:10:25;;;;;;;2.00;1.65;;;10.90;73.20;;;;;;5507610;25;19999;-39
2024/04/18 00:12:51;;;;;;;2.08;1.60;;;10.90;73.20;;;;;;5482808;26;19998;-39
2024/04/18 00:15:23;;;;;;;1.70;1.60;;;10.90;73.20;;;;;;5466622;26;20047;-39
2024/04/18 00:17:55;;;;;;;;;;;10.90;73.20;;;;;;5457376;26;20009;-39
2024/04/18 00:20:24;;;;;;;1.65;1.55;;;10.80;73.10;;;;;;5482258;26;19935;-39
2024/04/18 00:22:52;;;;;;;2.15;1.77;;;10.80;73.10;;;;;;5485960;26;20012;-39
2024/04/18 00:25:26;;;;;;;1.60;1.50;;;10.80;73.20;;;;;;5473528;26;20596;-39
2024/04/18 00:27:53;;;;;;;1.70;1.60;;;10.80;73.40;;;;;;5458118;26;20003;-40
2024/04/18 00:30:38;;;;;;;1.60;1.50;;;10.80;73.20;;;;;;5474893;26;20009;-40
2024/04/18 00:33:04;;;;;;;2.00;1.70;;;10.80;73.20;;;;;;5481318;26;20055;-40
2024/04/18 00:35:36;;;;;;;2.70;1.70;;;10.80;73.20;;;;;;5470720;26;19998;-40
2024/04/18 00:38:14;;;;;;;1.95;1.60;;;10.80;73.30;;;;;;5478567;26;20041;-39
2024/04/18 00:40:43;;;;;;;1.58;1.48;;;10.80;73.30;;;;;;5458351;26;20003;-40
2024/04/18 00:43:21;;;;;;;2.10;1.63;;;10.70;73.20;;;;;;5488807;26;20010;-40
2024/04/18 00:45:50;;;;;;;1.60;1.50;;;10.80;73.30;;;;;;5480090;26;20011;-40
2024/04/18 00:48:24;;;;;;;1.73;1.50;;;10.70;73.30;;;;;;5481706;26;20006;-38
2024/04/18 00:50:57;;;;;;;1.90;1.70;;;10.70;73.30;;;;;;5484052;26;20396;-38
2024/04/18 00:53:25;;;;;;;1.85;1.50;;;10.80;73.30;;;;;;5463091;26;19995;-39
2024/04/18 00:55:53;;;;;;;2.03;1.55;;;10.70;73.20;;;;;;5482634;26;19998;-39
2024/04/18 00:58:40;;;;;;;1.58;1.48;;;10.80;73.30;;;;;;5480239;26;19998;-38
2024/04/18 01:01:18;;;;;;;1.60;1.50;;;10.70;73.20;;;;;;5461655;26;20079;-38
2024/04/18 01:03:54;;;;;;;1.70;1.60;;;10.70;73.30;;;;;;5487676;26;20158;-38
2024/04/18 01:06:39;;;;;;;;;;;10.70;73.30;;;;;;5489353;26;20021;-38
2024/04/18 01:09:15;;;;;;;1.50;1.40;;;10.60;73.20;;;;;;5473540;26;19930;-38
2024/04/18 01:12:00;;;;;;;1.52;1.42;;;10.60;73.20;;;;;;5464717;26;19998;-38
2024/04/18 01:14:26;;;;;;;1.60;1.50;;;10.60;73.30;;;;;;5463086;26;19998;-37
2024/04/18 01:17:03;;;;;;;2.90;1.55;;;10.60;73.30;;;;;;5479289;26;20003;-38
2024/04/18 01:19:28;;;;;;;2.10;1.58;;;10.60;73.40;;;;;;5472723;26;20010;-38
2024/04/18 01:21:55;;;;;;;1.70;1.60;;;10.60;73.30;;;;;;5488686;26;19999;-40
2024/04/18 01:24:21;;;;;;;1.60;1.50;;;10.60;73.30;;;;;;5468976;26;19995;-38
2024/04/18 01:26:47;;;;;;;2.63;1.58;;;10.60;73.30;;;;;;5471426;26;20390;-38
2024/04/18 01:29:12;;;;;;;2.28;1.77;;;10.60;73.30;;;;;;5475441;26;20013;-39
2024/04/18 01:31:58;;;;;;;1.58;1.42;;;10.60;73.40;;;;;;5459025;26;19998;-38
2024/04/18 01:34:24;;;;;;;2.13;1.50;;;10.60;73.40;;;;;;5469566;26;20090;-38
2024/04/18 01:37:11;;;;;;;2.05;1.30;;;10.60;73.30;;;;;;5489749;26;20056;-38
2024/04/18 01:39:37;;;;;;;1.98;1.52;;;10.60;73.30;;;;;;5466560;26;19998;-38
2024/04/18 01:42:03;;;;;;;1.88;1.55;;;10.60;73.40;;;;;;5460558;26;20010;-38
2024/04/18 01:44:43;;;;;;;1.40;1.30;;;10.50;73.30;;;;;;5477378;26;20006;-40
2024/04/18 01:47:28;;;;;;;1.52;1.42;;;10.60;74.00;;;;;;5477175;26;20035;-39
2024/04/18 01:50:06;;;;;;;1.90;1.70;;;10.50;73.30;;;;;;5480728;26;20003;-38
2024/04/18 01:52:32;;;;;;;1.60;1.50;;;10.50;73.30;;;;;;5456717;26;20014;-38
2024/04/18 01:55:05;;;;;;;1.38;1.30;;;10.50;73.30;;;;;;5461748;26;20009;-38
2024/04/18 01:57:37;;;;;;;1.55;1.30;;;10.50;73.30;;;;;;5482555;26;19998;-38
2024/04/18 02:00:21;;;;;;;1.92;1.67;;;10.50;73.30;;;;;;5466570;26;20044;-38
2024/04/18 02:02:47;;;;;;;1.60;1.50;;;10.50;73.30;;;;;;5463819;26;20011;-38
2024/04/18 02:05:33;;;;;;;1.77;1.40;;;10.40;73.90;;;;;;5467220;26;20519;-38
2024/04/18 02:08:14;;;;;;;1.52;1.40;;;10.40;73.30;;;;;;5481177;26;19990;-38
2024/04/18 02:10:48;;;;;;;1.52;1.42;;;10.40;73.30;;;;;;5474351;26;20009;-38
2024/04/18 02:13:34;;;;;;;1.85;1.55;;;10.40;73.30;;;;;;5490990;26;20020;-38
2024/04/18 02:16:00;;;;;;;1.92;1.60;;;10.40;73.30;;;;;;5475284;26;20051;-39
2024/04/18 02:18:45;;;;;;;2.05;1.60;;;10.40;73.30;;;;;;5464615;26;20012;-38
2024/04/18 02:21:11;;;;;;;1.48;1.38;;;10.40;73.30;;;;;;5474691;26;20006;-38
2024/04/18 02:23:51;;;;;;;2.22;1.70;;;10.30;73.20;;;;;;5475952;26;20010;-38
2024/04/18 02:26:17;;;;;;;2.80;1.70;;;10.30;73.30;;;;;;5480256;26;19994;-38
2024/04/18 02:28:43;;;;;;;1.75;1.60;;;10.30;73.20;;;;;;5462902;26;20002;-39
2024/04/18 02:31:18;;;;;;;1.50;1.40;;;10.30;73.30;;;;;;5456789;26;20013;-39
2024/04/18 02:33:50;;;;;;;2.13;1.48;;;10.30;73.30;;;;;;5465925;26;20533;-38
2024/04/18 02:36:15;;;;;;;1.45;1.33;;;10.30;73.30;;;;;;5457588;26;19999;-38
2024/04/18 02:38:41;;;;;;;2.45;1.80;;;10.20;73.20;;;;;;5468664;26;20089;-38
2024/04/18 02:41:08;;;;;;;1.92;1.40;;;10.20;73.20;;;;;;5481367;26;20079;-38
2024/04/18 02:43:53;;;;;;;1.58;1.48;;;10.20;73.30;;;;;;5468436;26;20019;-38
2024/04/18 02:46:20;;;;;;;1.55;1.40;;;10.20;73.30;;;;;;5470076;26;20572;-38
2024/04/18 02:49:04;;;;;;;;;;;10.20;73.90;;;;;;5480743;26;20060;-38
2024/04/18 02:51:30;;;;;;;1.38;1.27;;;10.00;73.10;;;;;;5467697;26;19936;-38
2024/04/18 02:54:11;;;;;;;1.45;1.35;;;10.10;73.20;;;;;;5471819;26;19998;-38
2024/04/18 02:56:36;;;;;;;1.65;1.38;;;10.10;73.20;;;;;;5465381;26;20026;-38
2024/04/18 02:59:11;;;;;;;2.25;1.52;;;10.00;73.20;;;;;;5485661;26;20046;-38
2024/04/18 03:01:49;;;;;;;2.13;1.55;;;10.00;73.20;;;;;;5468447;26;19998;-38
2024/04/18 03:04:15;;;;;;;1.92;1.50;;;10.00;73.30;;;;;;5467680;26;20025;-38
2024/04/18 03:06:41;;;;;;;1.60;1.40;;;10.00;73.30;;;;;;5485477;26;20003;-37
2024/04/18 03:09:11;;;;;;;1.73;1.50;;;10.00;73.30;;;;;;5467902;26;20003;-38
2024/04/18 03:11:53;;;;;;;1.95;1.65;;;9.90;73.30;;;;;;5474687;26;19995;-38
2024/04/18 03:14:40;;;;;;;1.70;1.58;;;9.90;73.90;;;;;;5459588;26;20156;-38
2024/04/18 03:17:07;;;;;;;2.95;1.60;;;9.90;73.30;;;;;;5484824;26;20536;-38
2024/04/18 03:19:51;;;;;;;2.22;1.40;;;9.90;73.20;;;;;;5479396;26;20059;-37
2024/04/18 03:22:26;;;;;;;1.83;1.70;;;9.80;73.20;;;;;;5461820;26;20042;-38
2024/04/18 03:24:59;;;;;;;1.83;1.55;;;9.80;73.20;;;;;;5463991;26;20010;-37
2024/04/18 03:27:29;;;;;;;2.13;1.50;;;9.80;73.20;;;;;;5466857;26;20044;-37
2024/04/18 03:29:55;;;;;;;2.10;1.60;;;9.80;73.20;;;;;;5470282;26;20010;-37
2024/04/18 03:32:36;;;;;;;1.67;1.58;;;9.80;73.20;;;;;;5472654;26;20347;-37
2024/04/18 03:35:03;;;;;;;1.55;1.45;;;9.80;73.20;;;;;;5477973;26;20005;-37
2024/04/18 03:37:29;;;;;;;2.58;1.70;;;9.70;73.20;;;;;;5474211;26;20034;-37
2024/04/18 03:39:57;;;;;;;2.45;1.60;;;9.70;73.20;;;;;;5471134;26;20322;-37
2024/04/18 03:42:23;;;;;;;1.60;1.50;;;9.70;73.20;;;;;;5465994;26;20006;-37
2024/04/18 03:44:57;;;;;;;2.40;1.85;;;9.70;73.20;;;;;;5456991;26;20002;-37
2024/04/18 03:47:23;;;;;;;2.05;1.50;;;9.60;73.10;;;;;;5466598;26;19998;-37
2024/04/18 03:50:07;;;;;;;1.60;1.50;;;9.70;73.20;;;;;;5476050;26;20003;-38
2024/04/18 03:52:39;;;;;;;2.42;1.65;;;9.60;73.20;;;;;;5474836;26;20039;-38
2024/04/18 03:55:25;;;;;;;2.15;1.45;;;9.60;73.20;;;;;;5476328;26;20477;-38
2024/04/18 03:57:51;;;;;;;2.13;1.48;;;9.50;73.10;;;;;;5479583;26;19994;-38
2024/04/18 04:00:37;;;;;;;2.00;1.80;;;9.50;73.10;;;;;;5466452;26;20010;-38
2024/04/18 04:03:05;;;;;;;1.95;1.52;;;9.50;73.10;;;;;;5461852;26;20009;-39
2024/04/18 04:05:31;;;;;;;1.77;1.60;;;9.50;73.10;;;;;;5475468;26;19999;-38
2024/04/18 04:08:00;;;;;;;2.60;1.73;;;9.50;73.10;;;;;;5473436;26;20010;-38
2024/04/18 04:10:38;;;;;;;2.22;1.70;;;9.50;73.10;;;;;;5463609;26;20051;-38
2024/04/18 04:13:04;;;;;;;1.92;1.70;;;9.50;73.10;;;;;;5473262;26;20444;-39
2024/04/18 04:15:51;;;;;;;2.00;1.80;;;9.40;73.10;;;;;;5483247;26;20337;-38
2024/04/18 04:18:35;;;;;;;2.65;1.73;;;9.40;73.20;;;;;;5477173;26;20013;-40
2024/04/18 04:21:17;;;;;;;1.95;1.70;;;9.30;73.10;;;;;;5478473;26;19995;-39
2024/04/18 04:23:42;;;;;;;2.33;1.50;;;9.30;73.20;;;;;;5482700;26;20013;-39
2024/04/18 04:26:08;;;;;;;2.33;1.55;;;9.30;73.20;;;;;;5476746;26;19995;-39
2024/04/18 04:28:34;;;;;;;2.72;1.50;;;9.30;73.20;;;;;;5455292;26;20014;-39
2024/04/18 04:31:00;;;;;;;2.55;1.80;;;9.20;73.20;;;;;;5458046;26;20003;-42
2024/04/18 04:33:34;;;;;;;2.75;1.85;;;9.20;73.20;;;;;;5459162;26;19998;-40
2024/04/18 04:35:59;;;;;;;1.60;1.50;;;9.20;73.20;;;;;;5464123;26;20009;-39
2024/04/18 04:38:26;;;;;;;2.88;1.60;;;9.20;73.20;;;;;;5470088;26;20011;-40
2024/04/18 04:40:52;;;;;;;2.30;1.80;;;9.10;73.20;;;;;;5461236;26;19999;-40
2024/04/18 04:43:17;;;;;;;2.75;1.70;;;9.10;73.20;;;;;;5477240;26;20273;-40
2024/04/18 04:45:43;;;;;;;1.85;1.60;;;9.10;73.20;;;;;;5474218;26;20013;-40
2024/04/18 04:48:09;;;;;;;2.97;1.70;;;9.10;73.30;;;;;;5454174;26;20052;-40
2024/04/18 04:51:00;;;;;;;2.83;1.50;;;9.10;73.30;;;;;;5448006;26;20002;-42
2024/04/18 04:53:31;;;;;;;2.00;1.60;;;9.10;73.30;;;;;;5476449;26;20012;-40
2024/04/18 04:56:00;;;;;;;2.53;1.85;;;9.00;73.30;;;;;;5471088;26;20051;-40
2024/04/18 04:58:26;;;;;;;3.20;1.80;;;9.00;73.30;;;;;;5473205;26;20003;-40
2024/04/18 05:00:58;;;;;;;2.17;1.77;;;9.00;73.40;;;;;;5480479;26;20008;-39
2024/04/18 05:03:37;;;;;;;3.73;1.90;;;9.00;73.40;;;;;;5463207;26;19999;-40
2024/04/18 05:06:21;;;;;;;1.77;1.67;;;8.90;73.30;;;;;;5455838;26;20010;-39
2024/04/18 05:09:11;;;;;;;2.13;1.90;;;8.90;73.30;;;;;;5462436;26;19996;-39
2024/04/18 05:11:36;;;;;;;1.90;1.70;;;8.90;73.40;;;;;;5464948;26;20017;-40
2024/04/18 05:14:04;;;;;;;2.58;1.80;;;8.80;73.30;;;;;;5462516;26;20050;-39
2024/04/18 05:16:49;;;;;;;2.40;1.90;;;8.90;73.40;;;;;;5481206;26;20001;-39
2024/04/18 05:19:15;;;;;;;2.50;1.80;;;8.80;73.30;;;;;;5476902;26;19999;-39
2024/04/18 05:21:41;;;;;;;2.95;1.83;;;8.80;73.30;;;;;;5472233;26;20013;-40
2024/04/18 05:24:25;;;;;;;2.13;1.85;;;8.80;73.40;;;;;;5481602;26;20145;-39
2024/04/18 05:26:51;;;;;;;2.53;1.80;;;8.80;73.40;;;;;;5471039;26;20038;-40
2024/04/18 05:32:02;;;;;;;2.50;1.60;;;8.80;73.40;;;;;;5487886;26;20433;-40
2024/04/18 05:34:30;;;;;;;2.83;1.98;;;8.80;74.00;;;;;;5463857;26;19994;-40
2024/04/18 05:36:56;;;;;;;3.20;1.95;;;8.70;73.40;;;;;;5481468;26;19998;-39
2024/04/18 05:39:22;;;;;;;2.65;1.77;;;8.70;73.40;;;;;;5460184;26;20005;-39
2024/04/18 05:41:48;;;;;;;2.80;1.88;;;8.70;73.40;;;;;;5457635;26;20014;-40
2024/04/18 05:44:36;;;;;;;2.75;2.05;;;8.70;73.40;;;;;;5464970;26;19994;-39
2024/04/18 05:47:02;;;;;;;3.45;1.70;;;8.70;73.40;;;;;;5488417;26;20346;-39
2024/04/18 05:49:27;;;;;;;2.45;1.90;;;8.60;73.40;;;;;;5461932;26;20010;-39
2024/04/18 05:51:53;;;;;;;2.53;1.90;;;8.60;73.40;;;;;;5462612;26;20003;-39
2024/04/18 05:54:29;;;;;;;2.85;1.92;;;8.70;73.40;;;;;;5461605;26;20010;-40
2024/04/18 05:57:07;;;;;;;2.47;1.90;;;8.60;73.40;;;;;;5472683;26;20015;-40
2024/04/18 05:59:51;;;;;;;3.05;1.95;;;8.60;73.40;;;;;;5477713;26;19999;-41
2024/04/18 06:02:17;;;;;;;2.72;1.80;;;8.60;73.40;;;;;;5476231;26;20013;-45
2024/04/18 06:04:43;;;;;;;2.22;2.03;;;8.60;73.40;;;;;;5485541;26;20013;-41
2024/04/18 06:07:27;;;;;;;2.28;1.90;;;8.60;73.50;;;;;;5489699;26;20465;-39
2024/04/18 06:09:53;;;;;;;2.95;2.00;;;8.60;73.50;;;;;;5485395;26;20497;-39
2024/04/18 06:12:19;;;;;;;3.05;1.75;;;8.60;73.50;;;;;;5468330;26;20003;-40
2024/04/18 06:14:45;;;;;;;2.38;1.85;;;8.50;73.50;;;;;;5464208;26;20002;-40
2024/04/18 06:17:10;;;;;;;3.35;2.17;;;8.60;73.50;;;;;;5487728;26;20029;-39
2024/04/18 06:19:52;;;;;;;2.78;1.90;;;8.60;73.50;;;;;;5493599;26;19998;-40
2024/04/18 06:22:31;;;;;;;2.88;1.77;;;8.50;73.50;;;;;;5479188;26;20042;-40
2024/04/18 06:25:18;;;;;;;3.03;2.00;;;8.60;73.60;;;;;;5494623;26;20013;-40
2024/04/18 06:27:45;;;;;;;3.10;1.98;;;8.60;73.60;;;;;;5480866;26;19998;-39
2024/04/18 06:30:11;;;;;;;2.90;1.90;;;8.50;73.60;;;;;;5472163;26;20541;-40
2024/04/18 06:32:37;;;;;;;2.95;1.98;;;8.50;73.50;;;;;;5478411;26;20004;-40
2024/04/18 06:35:04;;;;;;;2.80;2.10;;;8.60;73.60;;;;;;5461243;26;20046;-43
2024/04/18 06:37:30;;;;;;;2.30;1.80;;;8.50;73.50;;;;;;5477416;26;20007;-40
2024/04/18 06:39:55;;;;;;;2.03;1.77;;;8.60;73.60;;;;;;5468818;26;20009;-41
2024/04/18 06:42:21;;;;;;;2.47;1.83;;;8.60;73.50;;;;;;5473943;26;19998;-42
2024/04/18 06:44:47;;;;;;;2.63;1.90;;;8.60;73.50;;;;;;5461578;26;19998;-41
2024/04/18 06:47:12;;;;;;;2.08;1.73;;;8.60;73.50;;;;;;5478543;26;20426;-41
2024/04/18 06:49:58;;;;;;;3.80;1.90;;;8.60;73.60;;;;;;5468510;26;20016;-41
2024/04/18 06:52:24;;;;;;;2.10;1.70;;;8.60;73.50;;;;;;5473502;26;20002;-42
2024/04/18 06:54:50;;;;;;;2.50;1.90;;;8.60;73.60;;;;;;5467322;26;20014;-44
2024/04/18 06:57:35;;;;;;;1.90;1.70;;;8.60;73.60;;;;;;5481691;26;19998;-42
2024/04/18 07:00:01;;;;;;;2.15;1.73;;;8.60;73.50;;;;;;5477255;26;19994;-40
2024/04/18 07:02:27;;;;;;;2.20;1.80;;;8.60;73.50;;;;;;5481379;26;20331;-41
2024/04/18 07:05:11;;;;;;;2.35;1.60;;;8.70;73.60;;;;;;5464335;26;20009;-41
2024/04/18 07:07:44;;;;;;;3.35;1.85;;;8.60;73.50;;;;;;5487811;26;20002;-43
2024/04/18 07:10:30;;;;;;;1.88;1.70;;;8.70;73.60;;;;;;5482895;26;20415;-41
2024/04/18 07:12:56;;;;;;;2.90;1.80;;;8.70;73.60;;;;;;5484717;26;19990;-42
2024/04/18 07:15:22;;;;;;;2.63;1.80;;;8.70;73.60;;;;;;5479312;26;20635;-41
2024/04/18 07:18:07;;;;;;;2.53;1.63;;;8.70;73.60;;;;;;5470335;26;19994;-41
2024/04/18 07:20:33;;;;;;;3.95;1.80;;;8.70;73.60;;;;;;5467057;26;20002;-49
2024/04/18 07:23:05;;;;;;;2.42;1.50;;;8.80;73.60;;;;;;5475178;26;19998;-43
2024/04/18 07:25:31;;;;;;;2.17;1.50;;;8.70;73.60;;;;;;5492188;26;20464;-42
2024/04/18 07:27:57;;;;;;;1.92;1.67;;;8.80;73.60;;;;;;5460194;26;20017;-41
2024/04/18 07:30:23;;;;;;;2.22;1.63;;;8.80;73.60;;;;;;5480168;26;20015;-42
2024/04/18 07:32:50;;;;;;;2.17;1.98;;;8.80;73.60;;;;;;5475645;26;20047;-43
2024/04/18 07:35:35;;;;;;;2.05;1.80;;;8.80;73.60;;;;;;5473490;26;20010;-43
2024/04/18 07:38:01;;;;;;;2.50;1.60;;;8.80;73.60;;;;;;5489676;26;20026;-41
2024/04/18 07:40:27;;;;;;;2.47;1.70;;;8.90;73.60;;;;;;5484666;26;20047;-43
2024/04/18 07:42:53;;;;;;;3.53;1.60;;;8.90;73.60;;;;;;5488070;26;19998;-42
2024/04/18 07:45:20;;;;;;;2.15;1.60;;;8.90;73.60;;;;;;5489791;26;20033;-38
2024/04/18 07:47:46;;;;;;;3.63;1.70;;;8.90;73.60;;;;;;5472183;26;20123;-38
2024/04/18 07:50:11;;;;;;;2.97;1.80;;;8.90;73.60;;;;;;5472699;26;20034;-39
2024/04/18 07:52:39;;;;;;;3.13;1.85;;;8.90;73.60;;;;;;5480539;26;19999;-38
2024/04/18 07:55:05;;;;;;;2.83;1.80;;;9.00;73.60;;;;;;5477652;26;20009;-40
2024/04/18 07:57:31;;;;;;;3.20;1.98;;;9.00;73.60;;;;;;5474679;26;20022;-38
2024/04/18 07:59:57;;;;;;;3.42;1.75;;;9.00;73.60;;;;;;5464288;26;20002;-38
2024/04/18 08:02:23;;;;;;;2.90;1.70;;;9.00;73.60;;;;;;5488920;26;20013;-38
2024/04/18 08:04:48;;;;;;;2.63;1.80;;;9.00;73.60;;;;;;5471300;26;19998;-38
2024/04/18 08:07:14;;;;;;;2.42;1.90;;;9.10;73.60;;;;;;5488035;25;20016;-39
2024/04/18 08:09:40;;;;;;;2.92;1.60;;;9.10;73.60;;;;;;5478800;26;20055;-38
2024/04/18 08:12:06;;;;;;;1.88;1.67;;;9.10;73.60;;;;;;5470013;26;19999;-39
2024/04/18 08:14:32;;;;;;;1.98;1.58;;;9.20;73.60;;;;;;5464603;26;20053;-38
2024/04/18 08:16:58;;;;;;;3.58;1.80;;;9.20;73.60;;;;;;5482625;26;20014;-48
2024/04/18 08:19:24;;;;;;;2.65;1.75;;;9.20;73.60;;;;;;5490445;26;20010;-38
2024/04/18 08:21:49;;;;;;;3.13;1.65;;;9.30;73.60;;;;;;5487570;26;20047;-38
2024/04/18 08:24:26;;;;;;;2.00;1.55;;;9.30;73.60;;;;;;5454563;26;19998;-38
2024/04/18 08:26:52;;;;;;;2.40;1.65;;;9.30;73.60;;;;;;5469628;26;20038;-39
2024/04/18 08:29:22;;;;;;;1.85;1.70;;;9.40;73.50;;;;;;5478497;26;20003;-39
2024/04/18 08:31:48;;;;;;;2.28;1.73;;;9.40;73.50;;;;;;5481214;26;20023;-39
2024/04/18 08:34:14;;;;;;;4.22;2.00;;;9.50;73.50;;;;;;5487449;26;19998;-40
2024/04/18 08:36:40;;;;;;;2.13;1.70;;;9.50;73.40;;;;;;5488200;26;20041;-38
2024/04/18 08:39:06;;;;;;;3.42;1.80;;;9.50;73.40;;;;;;5467971;26;19999;-38
2024/04/18 08:41:33;;;;;;;1.83;1.70;;;9.60;73.40;;;;;;5474716;26;20008;-41
2024/04/18 08:44:02;;;;;;;2.83;1.55;;;9.70;73.40;;;;;;5483285;26;19999;-39
2024/04/18 08:46:28;;;;;;;3.13;1.80;;;9.70;73.30;;;;;;5463175;26;19995;-39
2024/04/18 08:48:55;;;;;;;2.67;1.60;;;9.80;73.30;;;;;;5460539;26;20011;-38
2024/04/18 08:51:22;;;;;;;3.10;1.85;;;9.80;73.20;;;;;;5467087;26;20079;-39
2024/04/18 08:53:47;;;;;;;1.80;1.45;;;9.90;73.30;;;;;;5459859;26;20009;-38
2024/04/18 08:56:18;;;;;;;2.03;1.48;;;9.90;73.20;;;;;;5463175;26;19999;-43
2024/04/18 08:58:44;;;;;;;2.85;1.75;;;10.00;73.10;;;;;;5469339;26;20014;-38
2024/04/18 09:01:09;;;;;;;1.52;1.42;;;10.10;73.10;;;;;;5487069;26;20388;-39
2024/04/18 09:03:36;;;;;;;2.13;1.70;;;10.10;73.00;;;;;;5477886;26;20025;-39
2024/04/18 09:06:02;;;;;;;1.65;1.42;;;10.20;73.00;;;;;;5476166;26;20030;-38
2024/04/18 09:08:28;;;;;;;2.25;1.50;;;10.30;73.00;;;;;;5487821;26;20051;-39
2024/04/18 09:10:53;;;;;;;1.77;1.60;;;10.30;72.90;;;;;;5488651;26;19998;-39
2024/04/18 09:13:20;;;;;;;1.70;1.45;;;10.40;72.90;;;;;;5478530;26;20013;-39
2024/04/18 09:15:46;;;;;;;2.25;1.50;;;10.50;73.00;;;;;;5484441;26;20030;-39
2024/04/18 09:18:11;;;;;;;2.25;1.40;;;10.50;72.90;;;;;;5462109;26;20121;-40
2024/04/18 09:20:41;;;;;;;1.92;1.42;;;10.60;72.90;;;;;;5485068;26;20012;-39
2024/04/18 09:23:07;;;;;;;2.33;1.50;;;10.70;72.80;;;;;;5470139;26;19990;-39
2024/04/18 09:25:33;;;;;;;2.17;1.33;;;10.70;72.70;;;;;;5493630;26;19998;-39
2024/04/18 09:27:59;;;;;;;2.08;1.35;;;10.80;73.20;;;;;;5465262;26;19999;-39
2024/04/18 09:30:25;;;;;;;2.00;1.30;;;10.90;72.60;;;;;;5471160;26;20531;-39
2024/04/18 09:32:51;;;;;;;1.50;1.40;;;10.90;72.50;;;;;;5466379;26;19995;-39
2024/04/18 09:35:17;;;;;;;1.38;1.27;;;11.00;72.40;;;;;;5460674;26;20002;-39
2024/04/18 09:37:44;;;;;;;1.33;1.23;;;11.10;72.30;;;;;;5492346;26;20042;-39
2024/04/18 09:40:11;;;;;;;1.52;1.40;;;11.20;72.30;;;;;;5472052;26;20011;-38
2024/04/18 09:42:47;;;;;;;2.47;1.30;;;11.30;72.20;;;;;;5467185;26;20040;-39
2024/04/18 09:45:18;;;;;;;1.48;1.30;;;11.40;72.20;;;;;;5479669;26;20518;-39
2024/04/18 09:47:44;;;;;;;2.15;1.30;;;11.50;72.10;;;;;;5457899;26;20018;-39
2024/04/18 09:50:12;;;;;;;1.95;1.25;;;11.60;72.00;;;;;;5484627;26;20002;-39
2024/04/18 09:52:40;;;;;;;2.00;1.20;;;11.60;71.90;;;;;;5453047;26;20014;-40
2024/04/18 09:55:07;;;;;;;1.38;1.17;;;11.70;71.90;;;;;;5461234;26;20013;-39
2024/04/18 09:57:35;;;;;;;1.95;1.67;;;11.80;71.90;;;;;;5482317;26;19998;-39
2024/04/18 10:00:02;;;;;;;1.23;1.10;;;11.90;71.80;;;;;;5472266;26;20009;-40
2024/04/18 10:02:37;;;;;;;1.42;1.20;;;12.00;71.80;;;;;;5484875;26;20013;-39
2024/04/18 10:05:04;;;;;;;2.45;1.50;;;12.10;71.70;;;;;;5491278;26;19998;-39
2024/04/18 10:07:31;;;;;;;1.80;1.40;;;12.20;71.70;;;;;;5488006;26;20378;-39
2024/04/18 10:09:58;;;;;;;1.67;1.20;;;12.30;71.60;;;;;;5483784;26;20074;-39
2024/04/18 10:12:34;;;;;;;1.67;1.40;;;12.40;71.60;;;;;;5487057;26;20009;-39
2024/04/18 10:15:00;;;;;;;1.50;1.20;;;12.50;71.60;;;;;;5475913;26;19999;-38
2024/04/18 10:17:32;;;;;;;1.25;1.15;;;12.50;71.40;;;;;;5462889;26;20002;-40
2024/04/18 10:20:02;;;;;;;1.90;1.20;;;12.60;71.40;;;;;;5472404;26;20011;-39
2024/04/18 10:22:31;;;;;;;1.45;1.30;;;12.70;71.40;;;;;;5469808;26;19998;-38
2024/04/18 10:24:57;;;;;;;1.45;1.20;;;12.70;71.30;;;;;;5458114;26;19994;-39
2024/04/18 10:27:23;;;;;;;1.30;1.15;;;12.80;71.60;;;;;;5476831;26;20522;-39
2024/04/18 10:29:56;;;;;;;1.65;1.20;;;12.90;71.40;;;;;;5461912;26;19994;-39
2024/04/18 10:32:23;;;;;;;1.20;1.10;;;12.90;71.40;;;;;;5483910;26;20309;-39
2024/04/18 10:34:51;;;;;;;1.40;1.30;;;12.90;71.40;;;;;;5476946;26;19998;-38
2024/04/18 10:37:22;;;;;;;1.30;1.20;;;13.00;71.50;;;;;;5458689;26;20509;-39
2024/04/18 10:39:48;;;;;;;1.30;1.20;;;13.10;71.50;;;;;;5476894;26;20457;-39
2024/04/18 10:42:19;;;;;;;1.85;1.20;;;13.10;71.40;;;;;;5471818;26;20029;-39
2024/04/18 10:44:52;;;;;;;1.30;1.17;;;13.20;71.40;;;;;;5470152;26;19998;-39
2024/04/18 10:47:21;;;;;;;1.10;1.08;;;13.30;71.40;;;;;;5489806;26;20120;-39
2024/04/18 10:49:47;;;;;;;1.67;1.20;;;13.40;71.40;;;;;;5495340;26;20018;-39
2024/04/18 10:52:19;;;;;;;1.15;1.05;;;13.40;71.30;;;;;;5459078;26;19999;-39
2024/04/18 10:54:48;;;;;;;1.33;1.02;;;13.40;71.30;;;;;;5472219;26;20350;-39
2024/04/18 10:57:14;;;;;;;1.60;1.20;;;13.50;71.30;;;;;;5473321;26;20510;-39
2024/04/18 10:59:43;;;;;;;1.48;1.20;;;13.60;71.30;;;;;;5484422;26;20002;-39
2024/04/18 11:02:13;;;;;;;1.20;1.10;;;13.60;71.20;;;;;;5488849;26;20002;-38
2024/04/18 11:04:38;;;;;;;1.10;1.10;;;13.70;71.20;;;;;;5488150;26;20030;-39
2024/04/18 11:07:04;;;;;;;2.20;1.20;;;13.70;71.20;;;;;;5479359;26;20057;-39
2024/04/18 11:09:33;;;;;;;1.42;1.33;;;13.70;71.20;;;;;;5479641;26;19998;-39
2024/04/18 11:12:01;;;;;;;1.35;1.10;;;13.80;71.20;;;;;;5458045;26;19998;-38
2024/04/18 11:14:27;;;;;;;2.38;1.20;;;13.80;71.20;;;;;;5484488;26;20017;-39
2024/04/18 11:17:00;;;;;;;1.30;1.05;;;13.90;71.20;;;;;;5466660;26;20042;-39
2024/04/18 11:19:32;;;;;;;1.38;1.17;;;13.90;71.30;;;;;;5473426;26;20531;-38
2024/04/18 11:21:59;;;;;;;1.40;1.30;;;14.00;71.20;;;;;;5456063;26;20071;-38
2024/04/18 11:24:25;;;;;;;1.00;1.00;;;14.00;71.20;;;;;;5476174;26;20006;-39
2024/04/18 11:26:51;;;;;;;0.90;0.90;;;14.00;71.20;;;;;;5479936;26;20414;-39
2024/04/18 11:29:17;;;;;;;1.20;1.10;;;14.00;71.10;;;;;;5480641;26;20013;-39
2024/04/18 11:31:43;;;;;;;1.08;1.00;;;14.10;71.10;;;;;;5482543;26;19998;-39
2024/04/18 11:34:09;;;;;;;1.20;1.10;;;14.20;71.10;;;;;;5491254;26;20017;-39
2024/04/18 11:36:37;;;;;;;1.20;1.10;;;14.30;71.10;;;;;;5481378;26;19995;-43
2024/04/18 11:39:04;;;;;;;1.27;1.00;;;14.30;71.10;;;;;;5463551;26;20005;-39
2024/04/18 11:41:33;;;;;;;1.42;1.10;;;14.40;71.00;;;;;;5480895;26;20467;-39
2024/04/18 11:44:01;;;;;;;0.95;0.95;;;14.40;71.00;;;;;;5484553;26;20013;-38
2024/04/18 11:46:27;;;;;;;0.90;0.90;;;14.50;71.00;;;;;;5471530;26;20043;-39
2024/04/18 11:48:53;;;;;;;0.90;0.90;;;14.50;70.90;;;;;;5461995;26;20006;-38
2024/04/18 11:51:19;;;;;;;2.17;1.20;;;14.60;70.90;;;;;;5464702;26;19999;-39
2024/04/18 11:53:44;;;;;;;1.98;1.10;;;14.70;70.90;;;;;;5463378;26;20010;-38
2024/04/18 11:56:30;;;;;;;1.02;1.00;;;14.70;70.80;;;;;;5478821;26;20011;-39
2024/04/18 11:58:58;;;;;;;1.25;1.00;;;14.80;70.80;;;;;;5465883;26;20013;-40
2024/04/18 12:01:30;;;;;;;1.40;1.20;;;14.80;70.80;;;;;;5454246;26;20014;-39
2024/04/18 12:04:16;;;;;;;1.25;0.98;;;14.90;70.80;;;;;;5477742;26;20009;-39
2024/04/18 12:06:41;;;;;;;1.45;1.00;;;14.90;70.70;;;;;;5471851;26;20009;-38
2024/04/18 12:09:25;;;;;;;4.07;1.40;;;15.00;70.70;;;;;;5490615;26;20002;-38
2024/04/18 12:11:51;;;;;;;1.02;1.02;;;15.00;70.70;;;;;;5484453;26;20009;-39
2024/04/18 12:14:17;;;;;;;0.98;0.90;;;15.10;70.80;;;;;;5473990;26;19998;-39
2024/04/18 12:16:55;;;;;;;1.80;1.10;;;15.10;70.80;;;;;;5461668;26;19998;-39
2024/04/18 12:19:40;;;;;;;1.25;1.00;;;15.20;70.80;;;;;;5467362;26;19994;-39
2024/04/18 12:22:10;;;;;;;1.10;1.00;;;15.20;70.70;;;;;;5450369;26;20354;-38
2024/04/18 12:24:36;;;;;;;0.93;0.93;;;15.20;70.60;;;;;;5471191;26;19998;-39
2024/04/18 12:27:08;;;;;;;1.83;1.00;;;15.30;70.60;;;;;;5476285;26;20005;-39
2024/04/18 12:29:52;;;;;;;1.80;1.10;;;15.30;71.10;;;;;;5472151;26;20003;-39
2024/04/18 12:32:19;;;;;;;1.23;1.00;;;15.40;70.40;;;;;;5486480;26;20279;-42
2024/04/18 12:34:50;;;;;;;1.33;1.00;;;15.40;70.40;;;;;;5481223;26;20002;-38
2024/04/18 12:37:16;;;;;;;1.35;0.80;;;15.50;70.30;;;;;;5470141;26;20002;-38
2024/04/18 12:39:47;;;;;;;1.20;1.00;;;15.60;70.30;;;;;;5485761;26;19998;-38
2024/04/18 12:42:25;;;;;;;1.35;1.00;;;15.60;70.20;;;;;;5457005;26;20010;-39
2024/04/18 12:44:51;;;;;;;1.30;1.00;;;15.60;70.30;;;;;;5456944;26;19999;-38
2024/04/18 12:47:19;;;;;;;1.20;1.10;;;15.70;70.10;;;;;;5461625;26;19994;-38
2024/04/18 12:49:46;;;;;;;1.13;0.80;;;15.70;69.90;;;;;;5489950;26;20002;-38
2024/04/18 12:52:15;;;;;;;1.13;0.95;;;15.80;70.00;;;;;;5481045;26;20021;-38
2024/04/18 12:54:42;;;;;;;1.15;0.90;;;15.80;69.80;;;;;;5476461;26;19994;-38
2024/04/18 12:57:20;;;;;;;2.03;1.05;;;15.80;69.80;;;;;;5464127;26;20031;-38
2024/04/18 13:00:03;;;;;;;1.50;0.98;;;15.90;69.70;;;;;;5461600;26;20003;-38
2024/04/18 13:02:48;;;;;;;1.42;1.08;;;15.90;69.70;;;;;;5460229;26;19999;-38
2024/04/18 13:05:29;;;;;;;1.10;0.93;;;16.00;69.70;;;;;;5473973;26;20079;-39
2024/04/18 13:08:04;;;;;;;2.95;1.02;;;16.00;69.70;;;;;;5458356;26;19999;-39
2024/04/18 13:10:50;;;;;;;0.90;0.90;;;16.00;69.60;;;;;;5491455;26;20013;-39
2024/04/18 13:13:22;;;;;;;1.05;1.02;;;16.10;70.20;;;;;;5478901;26;19998;-39